Time;durP1;ratioP1;P1;durP2;ratioP2;P2;SDS_P1;SDS_P2;PMS_P1;PMS_P2;Temp;Humidity;BMP_temperature;BMP_pressure;BME280_temperature;BME280_humidity;BME280_pressure;Samples;Min_cycle;Max_cycle;Signal;HPM_P1;HPM_P2
2022/03/18 00:02:14;;;;;;;10.95;8.27;;;;;;;2.68;66.92;96764.50;5048150;28;20109;-63
2022/03/18 00:04:41;;;;;;;11.80;8.75;;;;;;;2.72;66.55;96763.66;5048068;28;20056;-65
2022/03/18 00:07:07;;;;;;;9.88;7.88;;;;;;;2.83;66.31;96757.66;5047986;28;20571;-63
2022/03/18 00:09:32;;;;;;;23.45;10.68;;;;;;;2.83;66.63;96773.78;5048040;28;20040;-65
2022/03/18 00:11:58;;;;;;;14.75;10.48;;;;;;;2.63;66.79;96737.38;5048268;28;20415;-65
2022/03/18 00:14:23;;;;;;;14.00;9.75;;;;;;;2.75;67.87;96767.88;5047579;28;20045;-63
2022/03/18 00:16:49;;;;;;;10.20;8.48;;;;;;;2.49;68.20;96735.75;5047646;28;20084;-63
2022/03/18 00:19:14;;;;;;;13.10;9.80;;;;;;;2.33;67.75;96708.66;5047858;28;20037;-65
2022/03/18 00:21:40;;;;;;;12.73;9.27;;;;;;;2.58;67.95;96752.69;5047753;28;20060;-66
2022/03/18 00:24:06;;;;;;;12.30;9.15;;;;;;;2.70;67.50;96775.53;5047730;28;20424;-62
2022/03/18 00:26:32;;;;;;;12.25;9.10;;;;;;;2.48;67.80;96748.47;5047888;28;20468;-63
2022/03/18 00:28:58;;;;;;;14.98;9.95;;;;;;;2.34;68.04;96754.44;5050446;28;20107;-63
2022/03/18 00:31:24;;;;;;;15.23;11.13;;;;;;;2.43;68.35;96768.00;5051924;28;20024;-65
2022/03/18 00:33:50;;;;;;;12.68;9.05;;;;;;;2.34;68.53;96768.88;5051726;28;20535;-66
2022/03/18 00:36:15;;;;;;;14.57;10.25;;;;;;;2.48;68.13;96786.69;5051530;28;20025;-64
2022/03/18 00:38:41;;;;;;;14.02;10.13;;;;;;;2.46;68.20;96788.34;5051679;28;20035;-64
2022/03/18 00:41:07;;;;;;;14.65;10.63;;;;;;;2.39;68.29;96790.94;5049825;28;20048;-65
2022/03/18 00:43:33;;;;;;;16.83;10.43;;;;;;;1.98;68.17;96729.94;5050381;28;20028;-65
2022/03/18 00:45:58;;;;;;;13.75;10.18;;;;;;;2.37;68.74;96792.63;5049809;28;20041;-64
2022/03/18 00:53:53;;;;;;;15.63;11.38;;;;;;;2.15;68.48;96763.00;5051286;28;20769;-65
2022/03/18 00:56:18;;;;;;;17.15;11.82;;;;;;;2.33;69.15;96802.84;5050973;28;20047;-63
2022/03/18 00:58:43;;;;;;;18.27;12.27;;;;;;;2.34;68.69;96802.81;5051505;28;20472;-63
2022/03/18 01:01:10;;;;;;;15.88;11.60;;;;;;;2.36;68.75;96795.16;5049317;28;20091;-62
2022/03/18 01:03:36;;;;;;;14.95;11.38;;;;;;;2.45;68.40;96814.69;5046911;28;20029;-62
2022/03/18 01:06:01;;;;;;;18.05;11.82;;;;;;;2.38;68.42;96816.41;5051499;28;20431;-63
2022/03/18 01:08:27;;;;;;;17.83;11.95;;;;;;;2.33;69.21;96823.22;5051447;28;20066;-63
2022/03/18 01:10:53;;;;;;;18.52;12.75;;;;;;;1.96;69.40;96767.25;5050908;28;20028;-63
2022/03/18 01:13:19;;;;;;;18.38;11.98;;;;;;;2.23;69.41;96816.41;5050502;28;20461;-65
2022/03/18 01:15:45;;;;;;;17.20;11.05;;;;;;;2.28;68.98;96807.94;5050775;28;20455;-63
2022/03/18 01:18:10;;;;;;;17.77;11.35;;;;;;;2.32;68.06;96811.31;5050870;28;20029;-63
2022/03/18 01:20:36;;;;;;;19.60;11.05;;;;;;;2.25;67.60;96792.66;5050944;28;20032;-63
2022/03/18 01:23:03;;;;;;;19.02;12.32;;;;;;;2.26;66.82;96794.34;5038555;28;20036;-67
2022/03/18 01:25:29;;;;;;;17.33;10.88;;;;;;;1.90;67.19;96749.44;5040276;28;20052;-62
2022/03/18 01:27:54;;;;;;;17.48;10.88;;;;;;;2.36;66.59;96813.84;5039409;28;20029;-62
2022/03/18 01:30:20;;;;;;;14.70;10.15;;;;;;;1.99;66.24;96757.91;5036184;28;20036;-63
2022/03/18 01:32:45;;;;;;;15.25;9.98;;;;;;;2.17;64.76;96791.84;5032521;28;20057;-62
2022/03/18 01:35:11;;;;;;;14.43;10.32;;;;;;;2.14;63.81;96790.13;5040370;28;20435;-62
2022/03/18 01:37:37;;;;;;;14.90;10.45;;;;;;;2.26;63.40;96801.13;5039482;28;20038;-62
2022/03/18 01:40:03;;;;;;;14.75;10.02;;;;;;;2.24;63.64;96806.22;5029507;28;20036;-64
2022/03/18 01:42:28;;;;;;;15.30;10.35;;;;;;;2.20;63.22;96807.09;5030530;28;20045;-62
2022/03/18 01:44:54;;;;;;;14.90;11.20;;;;;;;2.09;63.23;96788.44;5030462;28;20036;-63
2022/03/18 01:47:19;;;;;;;15.40;10.52;;;;;;;2.06;63.25;96809.66;5030460;28;20090;-62
2022/03/18 01:49:45;;;;;;;13.60;10.18;;;;;;;2.05;62.37;96815.59;5030433;28;20044;-63
2022/03/18 01:52:11;;;;;;;16.15;10.70;;;;;;;1.93;62.84;96816.44;5029907;28;20032;-64
2022/03/18 01:54:47;;;;;;;16.42;9.77;;;;;;;1.89;63.18;96817.28;5030364;28;20025;-63
2022/03/18 01:57:21;;;;;;;15.07;10.90;;;;;;;1.92;63.59;96819.84;5030205;28;20145;-62
2022/03/18 01:59:51;;;;;;;13.98;9.30;;;;;;;2.01;62.37;96818.97;5030227;28;20102;-64
2022/03/18 02:02:17;;;;;;;12.65;9.27;;;;;;;1.97;62.37;96825.78;5030305;28;20055;-63
2022/03/18 02:04:44;;;;;;;14.07;10.57;;;;;;;1.82;62.87;96813.03;5029528;28;20361;-64
2022/03/18 02:07:10;;;;;;;14.32;10.32;;;;;;;1.93;62.95;96831.69;5029995;28;20034;-63
2022/03/18 02:09:37;;;;;;;18.63;11.65;;;;;;;1.92;62.73;96835.09;5030158;28;20026;-62
2022/03/18 02:12:04;;;;;;;17.15;10.80;;;;;;;1.94;63.35;96830.03;5029715;28;20029;-63
2022/03/18 02:14:35;;;;;;;17.80;10.52;;;;;;;1.81;62.73;96793.56;5029672;28;20563;-63
2022/03/18 02:17:06;;;;;;;15.57;10.55;;;;;;;2.07;62.12;96823.25;5029323;28;20060;-63
2022/03/18 02:19:32;;;;;;;16.08;9.93;;;;;;;2.01;62.23;96824.06;5029931;28;20543;-63
2022/03/18 02:21:58;;;;;;;15.55;10.05;;;;;;;1.83;62.75;96797.78;5029805;28;20064;-62
2022/03/18 02:24:24;;;;;;;16.23;11.38;;;;;;;1.95;63.87;96830.03;5029781;28;20504;-62
2022/03/18 02:26:51;;;;;;;14.70;10.55;;;;;;;1.89;65.25;96817.28;5029819;28;20029;-62
2022/03/18 02:29:21;;;;;;;15.10;11.18;;;;;;;1.85;65.85;96828.31;5029430;28;20026;-62
2022/03/18 02:31:47;;;;;;;16.63;10.38;;;;;;;1.81;66.67;96819.00;5029659;28;20022;-62
2022/03/18 02:34:14;;;;;;;17.55;12.00;;;;;;;1.77;67.11;96817.28;5029862;28;20029;-64
2022/03/18 02:36:40;;;;;;;18.17;12.50;;;;;;;1.87;67.57;96839.34;5029856;28;20064;-64
2022/03/18 02:39:05;;;;;;;14.98;11.38;;;;;;;1.77;67.89;96841.03;5029638;28;20030;-65
2022/03/18 02:41:34;;;;;;;15.60;11.13;;;;;;;1.31;68.67;96771.47;5029091;28;20569;-64
2022/03/18 02:44:00;;;;;;;18.45;12.23;;;;;;;1.64;69.23;96854.56;5029844;28;20437;-63
2022/03/18 02:46:26;;;;;;;18.63;12.45;;;;;;;1.35;70.00;96817.25;5029432;28;20032;-68
2022/03/18 02:48:51;;;;;;;16.25;12.65;;;;;;;1.37;70.22;96835.88;5029243;28;20412;-63
2022/03/18 02:51:17;;;;;;;16.83;12.60;;;;;;;1.11;70.09;96802.78;5028409;28;20100;-64
2022/03/18 02:53:43;;;;;;;18.67;14.10;;;;;;;1.41;70.54;96864.69;5028860;28;20045;-64
2022/03/18 02:56:08;;;;;;;17.10;12.52;;;;;;;1.35;70.72;96867.25;5029239;28;20029;-62
2022/03/18 02:58:35;;;;;;;17.67;13.35;;;;;;;1.24;71.30;96868.03;5029466;28;20150;-62
2022/03/18 03:01:01;;;;;;;19.35;14.38;;;;;;;1.17;71.11;96865.50;5029176;28;20056;-63
2022/03/18 03:03:27;;;;;;;19.73;15.80;;;;;;;1.09;71.30;96862.91;5029085;28;20140;-62
2022/03/18 03:08:36;;;;;;;18.58;14.02;;;;;;;0.95;71.46;96872.16;5029248;28;20540;-63
2022/03/18 03:11:02;;;;;;;22.38;16.05;;;;;;;0.90;71.89;96879.75;5029001;28;20053;-63
2022/03/18 03:13:27;;;;;;;22.45;16.08;;;;;;;0.83;72.00;96872.97;5028560;28;20498;-60
2022/03/18 03:15:53;;;;;;;20.42;16.40;;;;;;;0.72;71.77;96875.44;5028421;28;20087;-61
2022/03/18 03:18:18;;;;;;;22.73;15.43;;;;;;;0.55;72.54;96855.03;5028712;28;20378;-62
2022/03/18 03:20:44;;;;;;;21.75;15.57;;;;;;;0.61;72.49;96875.38;5028542;28;20467;-62
2022/03/18 03:23:09;;;;;;;20.20;15.23;;;;;;;0.64;72.46;96884.69;5028733;28;20040;-62
2022/03/18 03:25:35;;;;;;;22.70;16.05;;;;;;;0.72;71.77;96885.59;5028357;28;20025;-64
2022/03/18 03:28:01;;;;;;;18.02;14.35;;;;;;;0.76;71.48;96879.69;5028258;28;20049;-64
2022/03/18 03:30:26;;;;;;;22.77;16.17;;;;;;;0.78;71.70;96892.41;5028701;28;20400;-64
2022/03/18 03:32:52;;;;;;;19.25;14.50;;;;;;;0.68;72.16;96905.03;5028621;28;20030;-64
2022/03/18 03:35:18;;;;;;;22.27;16.00;;;;;;;0.59;71.47;96871.13;5028338;28;20120;-64
2022/03/18 03:37:44;;;;;;;24.40;15.70;;;;;;;0.52;71.61;96865.16;5028440;28;20040;-62
2022/03/18 03:40:13;;;;;;;21.25;15.70;;;;;;;0.70;72.09;96902.50;5027883;28;20037;-63
2022/03/18 03:42:40;;;;;;;18.00;14.60;;;;;;;0.76;71.36;96916.94;5028636;28;20385;-62
2022/03/18 03:45:06;;;;;;;17.73;14.25;;;;;;;0.59;71.12;96873.66;5028560;28;20031;-60
2022/03/18 03:47:32;;;;;;;21.35;16.00;;;;;;;0.79;71.31;96896.63;5028044;28;20044;-63
2022/03/18 03:49:57;;;;;;;22.42;15.43;;;;;;;0.89;70.30;96906.84;5028418;28;20033;-64
2022/03/18 03:52:22;;;;;;;19.52;13.23;;;;;;;0.91;69.70;96905.16;5027859;28;20017;-62
2022/03/18 03:54:48;;;;;;;19.92;14.48;;;;;;;0.94;69.99;96908.59;5028098;28;20679;-62
2022/03/18 03:57:13;;;;;;;20.60;14.93;;;;;;;0.94;70.28;96917.03;5026781;28;20111;-62
2022/03/18 03:59:39;;;;;;;19.20;14.80;;;;;;;1.00;69.26;96913.66;5028316;28;20026;-62
2022/03/18 04:02:05;;;;;;;18.52;14.63;;;;;;;0.96;69.09;96895.03;5028000;28;20451;-62
2022/03/18 04:04:32;;;;;;;18.85;14.52;;;;;;;1.05;69.17;96920.50;5027492;28;20029;-62
2022/03/18 04:06:57;;;;;;;17.63;13.88;;;;;;;0.90;69.23;96895.00;5027878;28;20033;-61
2022/03/18 04:09:23;;;;;;;18.13;13.57;;;;;;;1.09;68.89;96918.81;5028030;28;20032;-63
2022/03/18 04:11:48;;;;;;;16.58;13.27;;;;;;;0.94;68.13;96895.88;5028229;28;20029;-63
2022/03/18 04:14:14;;;;;;;15.70;12.27;;;;;;;0.99;68.22;96917.91;5027517;28;20050;-63
2022/03/18 04:16:39;;;;;;;17.20;12.80;;;;;;;1.16;67.88;96932.38;5027646;28;20358;-62
2022/03/18 04:19:05;;;;;;;18.90;12.75;;;;;;;1.10;68.02;96928.16;5027991;28;20112;-63
2022/03/18 04:21:30;;;;;;;19.42;13.57;;;;;;;1.21;67.36;96944.25;5028097;28;20406;-65
2022/03/18 04:23:56;;;;;;;16.08;12.40;;;;;;;0.96;67.27;96907.72;5027873;28;20465;-63
2022/03/18 04:26:22;;;;;;;16.27;10.77;;;;;;;1.27;65.88;96934.13;5027686;28;20108;-63
2022/03/18 04:28:48;;;;;;;14.63;11.27;;;;;;;1.29;65.89;96944.31;5027456;28;20033;-64
2022/03/18 04:31:13;;;;;;;15.25;11.77;;;;;;;1.23;66.01;96949.34;5026194;28;20480;-62
2022/03/18 04:33:39;;;;;;;12.32;10.82;;;;;;;1.28;66.49;96950.25;5027902;28;20036;-64
2022/03/18 04:36:04;;;;;;;14.43;11.25;;;;;;;1.27;65.50;96949.38;5027807;28;20120;-62
2022/03/18 04:38:30;;;;;;;16.60;11.48;;;;;;;1.26;65.98;96945.16;5027808;28;20112;-63
2022/03/18 04:40:55;;;;;;;15.77;11.13;;;;;;;1.14;65.41;96914.59;5027030;28;20029;-62
2022/03/18 04:43:21;;;;;;;17.85;11.70;;;;;;;1.27;65.91;96946.00;5027992;28;20068;-63
2022/03/18 04:45:46;;;;;;;16.08;11.60;;;;;;;1.23;66.15;96955.31;5027655;28;20475;-62
2022/03/18 04:48:12;;;;;;;14.95;10.75;;;;;;;1.21;65.39;96954.44;5027428;28;20028;-62
2022/03/18 04:50:37;;;;;;;17.70;11.93;;;;;;;0.98;65.49;96898.41;5027565;28;20017;-63
2022/03/18 04:53:03;;;;;;;16.23;11.65;;;;;;;1.29;64.79;96955.31;5027237;28;20029;-63
2022/03/18 04:55:28;;;;;;;16.90;11.93;;;;;;;1.21;65.24;96943.41;5027400;28;20029;-61
2022/03/18 04:57:53;;;;;;;15.65;11.63;;;;;;;0.97;65.21;96911.09;5027322;28;20028;-65
2022/03/18 05:00:24;;;;;;;18.65;12.02;;;;;;;1.40;66.13;96968.09;5027563;28;20084;-66
2022/03/18 05:02:50;;;;;;;16.55;12.63;;;;;;;1.38;66.23;96974.03;5027276;28;20398;-62
2022/03/18 05:05:19;;;;;;;18.30;11.82;;;;;;;1.41;66.20;96976.53;5027122;28;20393;-62
2022/03/18 05:07:49;;;;;;;14.70;10.68;;;;;;;1.46;65.37;96980.81;5027440;28;20438;-62
2022/03/18 05:10:14;;;;;;;13.50;10.73;;;;;;;1.41;65.27;96977.41;5027357;28;20033;-63
2022/03/18 05:12:40;;;;;;;15.98;11.13;;;;;;;1.37;65.47;96975.69;5027409;28;20125;-62
2022/03/18 05:15:08;;;;;;;18.20;11.57;;;;;;;1.37;65.06;96977.41;5028821;28;20041;-61
2022/03/18 05:17:34;;;;;;;13.77;11.65;;;;;;;1.34;65.46;96972.28;5030788;28;20132;-63
2022/03/18 05:19:59;;;;;;;13.65;10.68;;;;;;;1.42;65.00;96980.81;5031308;28;20148;-62
2022/03/18 05:22:24;;;;;;;15.38;11.68;;;;;;;1.40;65.18;96974.88;5031045;28;20378;-63
2022/03/18 05:24:50;;;;;;;16.50;11.55;;;;;;;1.24;65.10;96972.22;5030984;28;20032;-62
2022/03/18 05:27:17;;;;;;;14.18;11.50;;;;;;;0.85;65.34;96933.09;5030874;28;20099;-62
2022/03/18 05:29:42;;;;;;;13.80;11.10;;;;;;;1.04;65.92;96984.00;5030657;28;20455;-61
2022/03/18 05:32:08;;;;;;;15.77;11.95;;;;;;;0.90;67.08;96984.78;5030702;28;20028;-61
2022/03/18 05:34:33;;;;;;;16.63;11.68;;;;;;;0.74;66.25;96962.66;5030732;28;20037;-62
2022/03/18 05:36:59;;;;;;;17.10;11.82;;;;;;;0.94;66.73;96987.34;5029649;28;20117;-62
2022/03/18 05:39:24;;;;;;;19.02;12.73;;;;;;;0.95;66.53;96986.47;5030364;28;20116;-62
2022/03/18 05:41:49;;;;;;;16.25;11.93;;;;;;;1.03;66.68;96990.78;5030496;28;20039;-62
2022/03/18 05:44:15;;;;;;;16.27;12.23;;;;;;;0.80;66.27;96961.81;5030782;28;20125;-64
2022/03/18 05:46:40;;;;;;;17.20;12.18;;;;;;;0.96;66.53;96993.28;5030526;28;20040;-63
2022/03/18 05:49:07;;;;;;;18.95;13.10;;;;;;;0.90;66.44;96982.22;5030637;28;20030;-62
2022/03/18 05:51:33;;;;;;;14.75;11.02;;;;;;;0.91;65.79;96981.38;5030479;28;20112;-63
2022/03/18 05:53:58;;;;;;;15.02;11.40;;;;;;;0.31;65.56;96884.50;5028851;28;20116;-62
2022/03/18 05:59:10;;;;;;;15.93;10.73;;;;;;;1.27;63.95;96996.84;5030592;28;20079;-63
2022/03/18 06:01:39;;;;;;;16.02;10.93;;;;;;;1.44;62.63;96981.66;5030064;28;20032;-61
2022/03/18 06:04:06;;;;;;;12.07;9.70;;;;;;;1.78;61.34;97005.50;5030037;28;20473;-62
2022/03/18 06:06:32;;;;;;;14.43;10.07;;;;;;;1.97;60.26;97003.06;5030191;28;20034;-63
2022/03/18 06:11:54;;;;;;;12.13;10.23;;;;;;;2.21;58.68;97014.97;5030484;28;20556;-67
2022/03/18 06:14:23;;;;;;;11.77;10.00;;;;;;;2.31;59.21;97028.56;5029934;28;20101;-61
2022/03/18 06:16:50;;;;;;;12.32;9.15;;;;;;;1.71;59.86;96950.41;5029755;28;20507;-65
2022/03/18 06:19:16;;;;;;;12.60;9.23;;;;;;;2.23;59.87;97037.88;5032442;28;20036;-62
2022/03/18 06:21:43;;;;;;;15.43;9.18;;;;;;;1.88;60.67;97001.31;5039413;28;20033;-65
2022/03/18 06:24:09;;;;;;;13.48;9.43;;;;;;;1.86;59.83;97003.00;5037497;28;20051;-63
2022/03/18 06:26:35;;;;;;;13.32;9.93;;;;;;;2.10;59.87;97044.63;5055447;28;20072;-61
2022/03/18 06:29:01;;;;;;;14.48;9.38;;;;;;;2.15;59.98;97046.34;5037688;28;20481;-62
2022/03/18 06:31:26;;;;;;;12.25;9.45;;;;;;;2.37;59.64;97051.50;5038989;28;20031;-64
2022/03/18 06:33:52;;;;;;;13.60;9.50;;;;;;;2.47;59.39;97052.34;5040068;28;20374;-63
2022/03/18 06:36:17;;;;;;;11.75;8.90;;;;;;;2.44;59.15;97055.72;5036757;28;20726;-62
2022/03/18 06:38:43;;;;;;;13.02;10.05;;;;;;;2.38;59.48;97048.09;5037878;28;20071;-63
2022/03/18 06:41:09;;;;;;;14.95;10.50;;;;;;;2.71;58.87;97066.81;5037200;28;20462;-65
2022/03/18 06:43:34;;;;;;;13.77;9.40;;;;;;;2.84;57.76;97052.41;5036839;28;20033;-62
2022/03/18 06:45:59;;;;;;;14.07;9.80;;;;;;;2.87;56.95;97025.22;5040147;28;20021;-62
2022/03/18 06:48:25;;;;;;;14.38;9.50;;;;;;;1.98;55.25;96849.50;5037832;28;20385;-65
2022/03/18 06:50:51;;;;;;;15.38;10.30;;;;;;;3.38;53.66;97044.66;5038794;28;20100;-61
2022/03/18 06:53:17;;;;;;;14.48;9.32;;;;;;;3.50;51.24;97060.78;5038967;28;20043;-62
2022/03/18 06:55:42;;;;;;;14.25;8.13;;;;;;;3.43;49.43;97079.53;5037512;28;20025;-64
2022/03/18 06:58:08;;;;;;;11.93;8.52;;;;;;;3.54;49.65;97076.09;5039212;28;20021;-66
2022/03/18 07:00:35;;;;;;;13.65;8.95;;;;;;;3.62;50.00;97074.38;5038979;28;20034;-63
2022/03/18 07:03:01;;;;;;;16.23;9.05;;;;;;;3.70;50.62;97082.84;5036915;28;20028;-61
2022/03/18 07:05:27;;;;;;;13.20;9.20;;;;;;;3.34;50.96;97030.25;5038339;28;20036;-66
2022/03/18 07:07:53;;;;;;;11.38;8.55;;;;;;;3.68;50.12;97074.38;5038385;28;20033;-62
2022/03/18 07:10:18;;;;;;;10.73;8.48;;;;;;;3.50;50.62;97096.50;5037173;28;20110;-63
2022/03/18 07:12:44;;;;;;;12.60;8.82;;;;;;;3.12;51.23;97050.69;5039147;28;20525;-62
2022/03/18 07:15:10;;;;;;;11.00;8.75;;;;;;;3.48;50.72;97094.81;5038208;28;20460;-63
2022/03/18 07:20:21;;;;;;;10.30;8.50;;;;;;;3.71;59.76;97073.53;5039373;28;20095;-64
2022/03/18 07:22:47;;;;;;;9.27;7.57;;;;;;;3.95;52.70;97098.09;5036939;28;20031;-63
2022/03/18 07:25:12;;;;;;;10.57;7.80;;;;;;;4.48;51.07;97091.06;5040162;28;20131;-69
2022/03/18 07:27:38;;;;;;;9.13;7.18;;;;;;;4.21;44.72;97093.75;5035695;28;20462;-68
2022/03/18 07:30:04;;;;;;;10.27;8.77;;;;;;;4.21;45.17;97092.88;5024464;28;20563;-68
2022/03/18 07:32:30;;;;;;;10.48;7.88;;;;;;;3.62;45.46;97061.63;5024565;28;20107;-66
2022/03/18 07:34:55;;;;;;;10.38;8.10;;;;;;;3.34;45.41;97043.00;5024114;28;20515;-66
2022/03/18 07:37:21;;;;;;;10.38;8.65;;;;;;;3.61;45.71;97103.31;5026566;28;20499;-67
2022/03/18 07:39:46;;;;;;;9.02;7.25;;;;;;;3.49;45.72;97092.28;5024849;28;20104;-68
2022/03/18 07:42:13;;;;;;;8.27;6.82;;;;;;;3.23;47.28;97099.97;5025603;28;20469;-69
2022/03/18 07:44:38;;;;;;;12.52;8.00;;;;;;;3.06;47.86;97104.22;5027769;28;20037;-66
2022/03/18 07:47:04;;;;;;;11.07;7.70;;;;;;;3.04;48.54;97113.56;5025248;28;20561;-66
2022/03/18 07:49:29;;;;;;;12.68;8.02;;;;;;;3.19;48.46;97110.16;5031726;28;20048;-66
2022/03/18 07:51:56;;;;;;;12.10;8.23;;;;;;;3.52;48.73;97111.81;5025571;28;20033;-66
2022/03/18 07:54:21;;;;;;;13.35;9.13;;;;;;;3.42;47.61;97093.13;5027564;28;20546;-68
2022/03/18 07:56:47;;;;;;;9.93;7.20;;;;;;;3.46;47.02;97117.78;5025433;28;20037;-68
2022/03/18 07:59:12;;;;;;;11.73;8.80;;;;;;;3.33;47.59;97112.69;5030429;28;20178;-66
2022/03/18 08:01:39;;;;;;;17.02;9.43;;;;;;;3.37;46.72;97119.50;5037554;28;20040;-66
2022/03/18 08:04:06;;;;;;;13.45;8.80;;;;;;;3.05;47.71;97062.56;5032884;28;20068;-69
2022/03/18 08:06:32;;;;;;;13.10;8.82;;;;;;;3.75;48.17;97121.97;5030883;28;20040;-69
2022/03/18 08:08:57;;;;;;;12.38;8.00;;;;;;;3.67;45.70;97122.00;5040572;28;20408;-70
2022/03/18 08:11:23;;;;;;;12.20;8.40;;;;;;;3.83;46.42;97116.84;5024544;28;20390;-67
2022/03/18 08:13:50;;;;;;;13.13;9.00;;;;;;;3.81;45.92;97065.81;5026299;28;20674;-66
2022/03/18 08:16:16;;;;;;;11.98;8.18;;;;;;;3.76;44.90;97092.22;5032597;28;20025;-68
2022/03/18 08:18:41;;;;;;;12.50;8.55;;;;;;;3.94;44.13;97074.28;5024909;28;20029;-69
2022/03/18 08:21:07;;;;;;;15.02;10.05;;;;;;;3.95;43.08;97054.69;5027130;28;20037;-67
2022/03/18 08:23:35;;;;;;;12.60;8.50;;;;;;;4.23;42.19;97109.91;5027664;28;20021;-67
2022/03/18 08:26:00;;;;;;;10.23;7.80;;;;;;;3.98;42.74;97110.84;5046941;28;20151;-67
2022/03/18 08:28:26;;;;;;;13.07;8.40;;;;;;;4.05;43.00;97110.00;5046884;28;20100;-65
2022/03/18 08:30:52;;;;;;;10.93;8.02;;;;;;;3.77;43.88;97048.81;5022868;28;20029;-66
2022/03/18 08:33:17;;;;;;;9.45;6.90;;;;;;;4.26;41.70;97106.47;5037300;28;20017;-67
2022/03/18 08:35:43;;;;;;;10.15;7.65;;;;;;;4.19;41.95;97108.22;5027316;28;20113;-68
2022/03/18 08:38:09;;;;;;;13.02;9.15;;;;;;;4.41;43.22;97110.66;5027456;28;20111;-66
2022/03/18 08:40:37;;;;;;;13.07;8.38;;;;;;;4.35;41.89;97070.69;5025855;28;20057;-67
2022/03/18 08:43:06;;;;;;;12.85;8.63;;;;;;;4.53;41.25;97092.72;5023900;28;20043;-67
2022/03/18 08:45:33;;;;;;;11.27;8.30;;;;;;;4.59;40.92;97077.34;5027128;28;20036;-67
2022/03/18 08:47:59;;;;;;;10.40;8.20;;;;;;;4.71;40.40;97052.56;5025792;28;20094;-67
2022/03/18 08:50:25;;;;;;;11.15;8.65;;;;;;;5.27;39.56;97106.69;5027908;28;20044;-65
2022/03/18 08:52:53;;;;;;;12.43;8.57;;;;;;;5.60;39.22;97100.38;5041881;28;20488;-67
2022/03/18 08:55:20;;;;;;;9.60;7.28;;;;;;;5.97;37.09;97096.59;5046571;28;20032;-66
2022/03/18 08:57:46;;;;;;;11.60;8.20;;;;;;;6.13;36.33;97076.78;5046764;28;20037;-66
2022/03/18 09:00:15;;;;;;;8.85;6.70;;;;;;;6.15;34.88;97031.50;5036736;28;20728;-65
2022/03/18 09:02:42;;;;;;;12.07;7.72;;;;;;;6.95;34.48;97091.88;5047388;28;20384;-66
2022/03/18 09:05:08;;;;;;;15.95;8.27;;;;;;;8.35;31.90;97083.38;5046301;28;20044;-66
2022/03/18 09:07:34;;;;;;;14.85;10.48;;;;;;;8.28;30.74;96985.81;5049094;28;20041;-68
2022/03/18 09:10:01;;;;;;;11.07;8.07;;;;;;;9.36;29.60;97075.91;5049246;28;20056;-66
2022/03/18 09:12:27;;;;;;;14.85;8.48;;;;;;;12.66;26.20;97062.91;5051054;28;20020;-72
2022/03/18 09:14:52;;;;;;;9.48;7.43;;;;;;;14.68;27.63;97015.41;5036419;28;20054;-67
2022/03/18 09:17:19;;;;;;;9.52;7.97;;;;;;;17.21;21.60;97030.88;5032642;28;20538;-72
2022/03/18 09:19:44;;;;;;;17.58;8.82;;;;;;;14.02;22.36;97005.47;5045042;28;20388;-73
2022/03/18 09:22:11;;;;;;;14.15;7.97;;;;;;;12.83;23.65;97043.28;5050399;28;20031;-73
2022/03/18 09:24:37;;;;;;;12.38;9.00;;;;;;;13.96;23.98;97074.00;5041947;28;20040;-72
2022/03/18 09:27:04;;;;;;;14.75;7.93;;;;;;;16.21;20.98;97041.56;5043377;28;20024;-71
2022/03/18 09:29:29;;;;;;;11.10;8.05;;;;;;;14.89;21.51;97068.09;5034195;28;20479;-72
2022/03/18 09:31:55;;;;;;;14.18;8.52;;;;;;;14.38;22.65;97063.53;5030667;28;20113;-71
2022/03/18 09:34:24;;;;;;;11.25;8.57;;;;;;;12.49;22.84;96910.88;5031496;28;20028;-72
2022/03/18 09:36:51;;;;;;;12.60;7.85;;;;;;;18.02;18.69;97055.75;5035985;28;20041;-73
2022/03/18 09:39:16;;;;;;;14.10;9.95;;;;;;;20.75;16.79;97046.53;5030101;28;20053;-70
2022/03/18 09:41:42;;;;;;;9.75;7.68;;;;;;;22.07;14.78;97042.97;5030104;28;20182;-70
2022/03/18 09:44:09;;;;;;;11.52;8.52;;;;;;;22.94;13.87;97023.88;5028914;28;20507;-71
2022/03/18 09:46:36;;;;;;;13.57;10.75;;;;;;;23.60;13.24;97043.94;5030226;28;20037;-71
2022/03/18 09:49:02;;;;;;;14.60;9.55;;;;;;;23.88;13.39;97007.41;5037615;28;20123;-72
2022/03/18 09:51:28;;;;;;;9.48;7.75;;;;;;;23.92;12.78;97035.97;5043913;28;20021;-71
2022/03/18 09:53:53;;;;;;;12.50;8.18;;;;;;;19.33;15.85;97059.75;5045342;28;20033;-70
2022/03/18 09:56:21;;;;;;;10.25;7.95;;;;;;;17.54;17.83;97068.94;5040636;28;20029;-72
2022/03/18 09:58:46;;;;;;;15.05;9.52;;;;;;;17.87;17.15;96976.59;5040425;28;20037;-72
2022/03/18 10:01:12;;;;;;;15.00;9.60;;;;;;;16.20;18.99;97067.69;5028934;28;20508;-74
2022/03/18 10:03:41;;;;;;;12.52;8.50;;;;;;;14.08;21.41;97093.38;5043940;28;20037;-72
2022/03/18 10:06:11;;;;;;;14.75;9.55;;;;;;;13.42;22.49;97083.22;5047937;28;20025;-70
2022/03/18 10:08:39;;;;;;;11.88;9.05;;;;;;;13.02;23.29;97088.25;5048264;28;20051;-73
2022/03/18 10:11:18;;;;;;;10.35;8.75;;;;;;;15.99;20.71;97042.72;5038384;28;20100;-72
2022/03/18 10:13:54;;;;;;;12.82;8.95;;;;;;;19.59;17.03;97063.25;5028033;28;20218;-72
2022/03/18 10:16:51;;;;;;;11.93;9.30;;;;;;;20.97;16.38;97055.47;5031999;28;20052;-69
2022/03/18 10:19:19;;;;;;;13.43;9.02;;;;;;;17.81;18.34;97063.88;5020041;28;20041;-71
2022/03/18 10:21:55;;;;;;;12.30;9.90;;;;;;;15.16;20.98;97066.84;5046619;28;20354;-72
2022/03/18 10:24:34;;;;;;;11.18;9.20;;;;;;;14.29;22.29;97075.19;5040529;28;20052;-71
2022/03/18 10:27:14;;;;;;;13.32;9.68;;;;;;;15.29;21.12;97004.69;5029179;28;20042;-75
2022/03/18 10:29:44;;;;;;;12.85;9.52;;;;;;;15.30;20.97;97063.53;5034468;28;20497;-72
2022/03/18 10:32:11;;;;;;;15.23;9.73;;;;;;;16.07;20.45;97059.69;5046051;28;20037;-71
2022/03/18 10:37:25;;;;;;;11.65;8.93;;;;;;;15.40;20.93;97059.59;5047638;28;20048;-73
2022/03/18 10:40:00;;;;;;;10.98;9.20;;;;;;;15.02;22.05;97075.28;5045991;28;20141;-72
2022/03/18 10:42:25;;;;;;;11.10;9.90;;;;;;;15.85;19.13;97019.19;5028415;28;20045;-73
2022/03/18 10:44:56;;;;;;;12.55;10.10;;;;;;;14.79;20.97;97076.38;5015633;28;20437;-71
2022/03/18 10:47:51;;;;;;;10.25;8.10;;;;;;;12.81;22.36;97081.34;5026215;28;20038;-73
2022/03/18 10:50:24;;;;;;;10.10;8.45;;;;;;;11.61;22.94;97042.59;4954316;28;20027;-72
2022/03/18 10:52:50;;;;;;;10.80;8.13;;;;;;;13.27;21.34;97081.25;4955617;28;20148;-74
2022/03/18 10:55:18;;;;;;;10.10;8.20;;;;;;;11.90;23.13;97082.06;4961196;28;20413;-72
2022/03/18 10:57:49;;;;;;;12.25;9.00;;;;;;;10.78;23.75;97090.03;4967389;28;20039;-72
2022/03/18 11:00:15;;;;;;;11.73;8.68;;;;;;;11.47;23.39;97068.88;4979640;28;20138;-73
2022/03/18 11:02:42;;;;;;;13.02;9.52;;;;;;;11.61;22.99;97073.59;4983365;28;20646;-71
2022/03/18 11:05:11;;;;;;;9.88;7.50;;;;;;;12.02;22.33;97071.31;4958201;28;20473;-71
2022/03/18 11:07:41;;;;;;;12.35;9.27;;;;;;;15.43;18.73;96990.09;4975730;28;20077;-67
2022/03/18 11:12:56;;;;;;;12.63;8.07;;;;;;;21.09;14.41;97031.00;4973436;28;20133;-72
2022/03/18 11:15:24;;;;;;;10.68;7.95;;;;;;;22.93;12.85;97033.53;4977513;28;20049;-72
2022/03/18 11:17:50;;;;;;;8.90;7.20;;;;;;;24.55;11.59;97008.63;4970987;28;20560;-71
2022/03/18 11:20:20;;;;;;;12.52;8.45;;;;;;;25.26;11.15;97021.63;4975686;28;20070;-71
2022/03/18 11:22:48;;;;;;;11.43;8.07;;;;;;;22.96;12.47;96974.59;4975189;28;20137;-71
2022/03/18 11:25:15;;;;;;;12.20;7.53;;;;;;;22.70;12.18;97032.78;4962542;28;20073;-74
2022/03/18 11:27:44;;;;;;;9.95;7.93;;;;;;;19.15;14.63;97031.28;5040447;28;20029;-72
2022/03/18 11:30:22;;;;;;;10.63;8.48;;;;;;;20.61;13.86;97045.84;5040186;28;20040;-72
2022/03/18 11:33:06;;;;;;;7.65;6.70;;;;;;;22.38;12.14;97030.06;5044448;28;20501;-71
2022/03/18 11:35:49;;;;;;;10.13;8.07;;;;;;;23.85;11.63;97013.75;5038363;28;20037;-70
2022/03/18 11:38:15;;;;;;;15.38;8.50;;;;;;;24.44;11.24;97020.09;5039122;28;20082;-69
2022/03/18 11:40:51;;;;;;;12.60;6.97;;;;;;;24.40;10.87;97003.72;5036262;28;20029;-69
2022/03/18 11:43:33;;;;;;;9.65;7.30;;;;;;;25.86;10.24;97018.78;5035032;28;20104;-68
2022/03/18 11:46:17;;;;;;;9.07;7.70;;;;;;;25.35;10.43;97021.78;5036135;28;20044;-66
2022/03/18 11:48:44;;;;;;;10.23;7.30;;;;;;;26.06;10.43;97007.38;5037095;28;20032;-71
2022/03/18 11:51:35;;;;;;;10.90;6.63;;;;;;;24.15;10.73;97017.38;5037655;28;20052;-71